createdAt,value
2019-04-10T00:00:00.089Z,15.08
2019-04-10T00:02:33.345Z,20.37
2019-04-10T00:05:07.623Z,22.40
2019-04-10T00:07:40.018Z,28.55
2019-04-10T00:10:11.827Z,24.95
2019-04-10T00:12:45.575Z,24.27
2019-04-10T00:15:18.229Z,19.50
2019-04-10T00:17:49.657Z,18.27
2019-04-10T00:20:22.472Z,23.18
2019-04-10T00:22:54.828Z,18.67
2019-04-10T00:25:26.571Z,29.02
2019-04-10T00:27:59.005Z,23.25
2019-04-10T00:30:31.254Z,22.25
2019-04-10T00:33:02.701Z,20.32
2019-04-10T00:35:35.178Z,27.77
2019-04-10T00:38:07.526Z,18.40
2019-04-10T00:40:39.902Z,25.45
2019-04-10T00:43:11.236Z,31.07
2019-04-10T00:45:43.884Z,22.65
2019-04-10T00:48:15.520Z,25.10
2019-04-10T00:50:50.987Z,21.37
2019-04-10T00:53:23.141Z,21.37
2019-04-10T00:55:57.914Z,28.57
2019-04-10T00:58:30.116Z,25.97
2019-04-10T01:01:01.951Z,25.53
2019-04-10T01:03:48.036Z,25.48
2019-04-10T01:06:18.470Z,25.82
2019-04-10T01:08:50.955Z,27.50
2019-04-10T01:11:23.168Z,26.75
2019-04-10T01:13:54.682Z,29.02
2019-04-10T01:16:27.181Z,30.45
2019-04-10T01:18:59.465Z,25.23
2019-04-10T01:21:31.262Z,21.35
2019-04-10T01:24:03.611Z,24.00
2019-04-10T01:26:35.018Z,28.23
2019-04-10T01:29:06.447Z,32.20
2019-04-10T01:31:37.797Z,26.75
2019-04-10T01:34:09.467Z,28.38
2019-04-10T01:36:41.109Z,34.75
2019-04-10T01:39:14.142Z,33.23
2019-04-10T01:41:46.026Z,26.30
2019-04-10T01:44:17.493Z,25.32
2019-04-10T01:46:48.686Z,34.92
2019-04-10T01:49:24.292Z,34.15
2019-04-10T01:51:55.537Z,27.77
2019-04-10T01:54:27.004Z,32.20
2019-04-10T01:56:58.336Z,34.15
2019-04-10T01:59:32.080Z,33.40
2019-04-10T02:02:05.772Z,31.90
2019-04-10T02:04:38.184Z,25.75
2019-04-10T02:07:09.694Z,31.77
2019-04-10T02:09:41.109Z,26.20
2019-04-10T02:12:12.572Z,36.23
2019-04-10T02:14:44.703Z,30.85
2019-04-10T02:17:16.782Z,26.62
2019-04-10T02:19:48.210Z,37.25
2019-04-10T02:22:20.629Z,32.93
2019-04-10T02:24:53.490Z,33.35
2019-04-10T02:27:24.673Z,31.17
2019-04-10T02:29:56.430Z,35.75
2019-04-10T02:32:28.355Z,41.40
2019-04-10T02:35:01.092Z,37.03
2019-04-10T02:37:33.126Z,34.10
2019-04-10T02:40:08.899Z,34.10
2019-04-10T02:42:41.108Z,30.70
2019-04-10T02:45:14.699Z,38.67
2019-04-10T02:47:47.420Z,36.15
2019-04-10T02:50:20.678Z,30.68
2019-04-10T02:52:52.432Z,38.00
2019-04-10T02:55:25.046Z,34.90
2019-04-10T02:57:58.623Z,32.73
2019-04-10T03:00:30.326Z,34.93
2019-04-10T03:03:03.490Z,39.63
2019-04-10T03:05:35.376Z,43.28
2019-04-10T03:08:11.139Z,30.62
2019-04-10T03:10:49.473Z,34.70
2019-04-10T03:13:17.856Z,34.23
2019-04-10T03:15:49.875Z,38.00
2019-04-10T03:18:22.959Z,41.85
2019-04-10T03:20:54.364Z,45.52
2019-04-10T03:23:27.125Z,35.85
2019-04-10T03:25:59.441Z,36.17
2019-04-10T03:28:32.108Z,33.35
2019-04-10T03:31:05.362Z,45.65
2019-04-10T03:33:42.300Z,35.75
2019-04-10T03:36:11.465Z,30.55
2019-04-10T03:38:55.299Z,38.38
2019-04-10T03:41:15.751Z,41.42
2019-04-10T03:43:47.727Z,38.05
2019-04-10T03:46:19.500Z,45.90
2019-04-10T03:48:51.511Z,40.67
2019-04-10T03:51:22.885Z,36.83
2019-04-10T03:53:54.548Z,40.85
2019-04-10T03:56:26.693Z,36.20
2019-04-10T03:58:57.888Z,45.83
2019-04-10T04:01:29.623Z,38.02
2019-04-10T04:04:01.497Z,34.53
2019-04-10T04:06:33.424Z,41.85
2019-04-10T04:09:10.849Z,45.40
2019-04-10T04:11:39.975Z,44.45
2019-04-10T04:14:12.283Z,44.07
2019-04-10T04:16:43.693Z,36.65
2019-04-10T04:19:15.654Z,37.03
2019-04-10T04:21:48.068Z,38.33
2019-04-10T04:24:23.602Z,44.93
2019-04-10T04:26:55.065Z,39.20
2019-04-10T04:29:26.910Z,42.45
2019-04-10T04:31:59.130Z,44.58
2019-04-10T04:34:31.287Z,45.43
2019-04-10T04:37:04.472Z,46.75
2019-04-10T04:39:39.932Z,43.20
2019-04-10T04:42:13.532Z,37.30
2019-04-10T04:44:45.411Z,41.45
2019-04-10T04:47:19.134Z,38.48
2019-04-10T04:49:50.310Z,35.88
2019-04-10T04:52:23.956Z,40.23
2019-04-10T04:54:55.314Z,39.58
2019-04-10T04:57:27.046Z,37.57
2019-04-10T04:59:58.968Z,38.23
2019-04-10T05:02:30.664Z,39.58
2019-04-10T05:05:06.636Z,43.55
2019-04-10T05:07:38.073Z,43.08
2019-04-10T05:10:09.634Z,40.85
2019-04-10T05:12:42.102Z,39.57
2019-04-10T05:15:13.965Z,40.30
2019-04-10T05:17:45.616Z,42.40
2019-04-10T05:20:18.999Z,33.43
2019-04-10T05:22:52.423Z,38.45
2019-04-10T05:25:30.009Z,40.73
2019-04-10T05:28:01.559Z,42.67
2019-04-10T05:30:33.512Z,38.92
2019-04-10T05:33:06.475Z,45.52
2019-04-10T05:35:38.061Z,36.15
2019-04-10T05:38:10.195Z,36.48
2019-04-10T05:40:42.233Z,31.12
2019-04-10T05:43:13.880Z,36.42
2019-04-10T05:45:46.504Z,34.50
2019-04-10T05:48:20.975Z,34.70
2019-04-10T05:50:57.633Z,40.38
2019-04-10T05:53:24.623Z,39.73
2019-04-10T05:55:56.009Z,39.78
2019-04-10T05:58:27.789Z,39.75
2019-04-10T06:01:01.001Z,33.70
2019-04-10T06:03:32.532Z,32.80
2019-04-10T06:06:04.194Z,34.33
2019-04-10T06:08:35.635Z,36.28
2019-04-10T06:11:07.240Z,39.50
2019-04-10T06:13:38.828Z,30.27
2019-04-10T06:16:11.941Z,28.35
2019-04-10T06:18:43.472Z,31.25
2019-04-10T06:21:15.071Z,32.53
2019-04-10T06:23:47.663Z,28.40
2019-04-10T06:26:19.888Z,28.77
2019-04-10T06:28:52.589Z,37.83
2019-04-10T06:31:24.914Z,37.37
2019-04-10T06:33:56.693Z,32.13
2019-04-10T06:36:29.150Z,35.10
2019-04-10T06:39:01.032Z,36.85
2019-04-10T06:41:34.771Z,33.33
2019-04-10T06:44:06.391Z,34.85
2019-04-10T06:46:39.358Z,37.83
2019-04-10T06:49:10.733Z,37.33
2019-04-10T06:51:42.970Z,42.03
2019-04-10T06:54:14.390Z,34.65
2019-04-10T06:56:48.384Z,38.23
2019-04-10T06:59:19.269Z,33.63
2019-04-10T07:01:53.327Z,33.65
2019-04-10T07:04:25.230Z,30.80
2019-04-10T07:07:03.037Z,34.55
2019-04-10T07:09:31.704Z,32.60
2019-04-10T07:12:04.719Z,28.30
2019-04-10T07:14:37.985Z,28.45
2019-04-10T07:17:10.683Z,29.57
2019-04-10T07:19:45.524Z,32.13
2019-04-10T07:22:17.458Z,34.45
2019-04-10T07:24:51.757Z,23.43
2019-04-10T07:27:22.259Z,30.27
2019-04-10T07:29:57.414Z,30.10
2019-04-10T07:32:27.736Z,27.62
2019-04-10T07:35:01.068Z,25.62
2019-04-10T07:37:32.088Z,25.85
2019-04-10T07:40:05.955Z,27.53
2019-04-10T07:42:41.164Z,29.42
2019-04-10T07:45:10.915Z,30.35
2019-04-10T07:47:42.363Z,25.12
2019-04-10T07:50:14.235Z,28.45
2019-04-10T07:52:45.908Z,32.42
2019-04-10T07:55:17.167Z,28.27
2019-04-10T07:57:50.267Z,29.85
2019-04-10T08:00:22.255Z,24.47
2019-04-10T08:02:53.587Z,22.42
2019-04-10T08:05:25.389Z,19.83
2019-04-10T08:07:57.547Z,21.15
2019-04-10T08:10:30.602Z,28.90
2019-04-10T08:13:02.381Z,25.82
2019-04-10T08:15:33.755Z,24.02
2019-04-10T08:18:06.548Z,21.00
2019-04-10T08:20:38.397Z,23.45
2019-04-10T08:23:10.225Z,22.98
2019-04-10T08:25:43.051Z,19.15
2019-04-10T08:28:15.589Z,31.80
2019-04-10T08:30:48.252Z,21.30
2019-04-10T08:33:19.953Z,22.20
2019-04-10T08:35:51.695Z,17.40
2019-04-10T08:38:23.906Z,13.93
2019-04-10T08:40:56.489Z,13.53
2019-04-10T08:43:28.008Z,16.25
2019-04-10T08:45:59.606Z,15.60
2019-04-10T08:48:31.991Z,16.93
2019-04-10T08:51:04.516Z,12.43
2019-04-10T08:53:36.219Z,15.78
2019-04-10T08:56:08.031Z,15.38
2019-04-10T08:58:39.490Z,16.35
2019-04-10T09:01:11.190Z,18.55
2019-04-10T09:03:43.319Z,13.65
2019-04-10T09:06:17.437Z,16.25
2019-04-10T09:08:48.961Z,9.85
2019-04-10T09:11:26.544Z,11.88
2019-04-10T09:13:53.297Z,14.23
2019-04-10T09:16:24.966Z,13.25
2019-04-10T09:18:56.541Z,11.60
2019-04-10T09:21:28.167Z,14.90
2019-04-10T09:24:00.702Z,18.00
2019-04-10T09:26:33.234Z,11.90
2019-04-10T09:29:04.785Z,17.70
2019-04-10T09:31:36.225Z,12.45
2019-04-10T09:34:07.664Z,12.30
2019-04-10T09:36:39.619Z,11.48
2019-04-10T09:39:11.660Z,13.18
2019-04-10T09:41:43.719Z,14.00
2019-04-10T09:44:15.503Z,9.00
2019-04-10T09:46:47.395Z,12.60
2019-04-10T09:49:30.423Z,14.35
2019-04-10T09:51:52.251Z,11.93
2019-04-10T09:54:23.989Z,10.80
2019-04-10T09:56:55.688Z,10.78
2019-04-10T09:59:35.871Z,16.93
2019-04-10T10:02:00.483Z,8.70
2019-04-10T10:04:33.268Z,8.48
2019-04-10T10:07:04.974Z,9.88
2019-04-10T10:09:36.182Z,12.70
2019-04-10T10:12:07.866Z,13.00
2019-04-10T10:14:40.512Z,7.65
2019-04-10T10:17:12.588Z,11.10
2019-04-10T10:19:44.247Z,10.67
2019-04-10T10:22:16.783Z,9.35
2019-04-10T10:24:48.930Z,10.50
2019-04-10T10:27:21.928Z,7.90
2019-04-10T10:29:55.937Z,9.98
2019-04-10T10:32:27.031Z,13.10
2019-04-10T10:34:58.912Z,9.40
2019-04-10T10:37:30.513Z,13.72
2019-04-10T10:40:01.999Z,18.67
2019-04-10T10:42:33.866Z,17.85
2019-04-10T10:45:08.775Z,17.10
2019-04-10T10:47:40.533Z,12.47
2019-04-10T10:50:13.090Z,24.90
2019-04-10T10:52:45.884Z,9.38
2019-04-10T10:55:17.861Z,9.87
2019-04-10T10:57:49.536Z,13.98
2019-04-10T11:00:23.135Z,11.03
2019-04-10T11:02:54.689Z,12.18
2019-04-10T11:05:26.038Z,11.57
2019-04-10T11:07:57.408Z,11.70
2019-04-10T11:10:30.077Z,12.03
2019-04-10T11:13:02.300Z,10.00
2019-04-10T11:15:34.162Z,9.78
2019-04-10T11:18:06.689Z,11.22
2019-04-10T11:20:39.440Z,12.50
2019-04-10T11:23:12.088Z,10.85
2019-04-10T11:25:43.849Z,10.97
2019-04-10T11:28:16.316Z,13.23
2019-04-10T11:30:49.181Z,22.02
2019-04-10T11:33:22.389Z,20.12
2019-04-10T11:35:57.253Z,18.90
2019-04-10T11:38:29.339Z,18.48
2019-04-10T11:41:02.657Z,25.75
2019-04-10T11:43:35.857Z,16.97
2019-04-10T11:46:07.961Z,26.30
2019-04-10T11:48:41.840Z,11.28
2019-04-10T11:51:14.155Z,12.10
2019-04-10T11:53:50.738Z,10.53
2019-04-10T11:56:19.305Z,12.80
2019-04-10T11:58:55.861Z,8.50
2019-04-10T12:01:25.424Z,8.83
2019-04-10T12:03:57.102Z,13.60
2019-04-10T12:06:31.714Z,13.15
2019-04-10T12:09:29.188Z,12.95
2019-04-10T12:11:39.162Z,15.63
2019-04-10T12:14:13.072Z,10.77
2019-04-10T12:16:45.255Z,7.65
2019-04-10T12:19:22.398Z,9.23
2019-04-10T12:21:53.914Z,6.87
2019-04-10T12:24:25.969Z,13.70
2019-04-10T12:26:58.339Z,9.85
2019-04-10T12:29:30.885Z,9.98
2019-04-10T12:32:02.279Z,13.68
2019-04-10T12:34:34.095Z,10.28
2019-04-10T12:37:05.406Z,11.22
2019-04-10T12:39:37.145Z,12.40
2019-04-10T12:42:08.308Z,9.63
2019-04-10T12:44:40.919Z,10.13
2019-04-10T12:47:13.436Z,10.90
2019-04-10T12:49:44.994Z,9.65
2019-04-10T12:52:16.654Z,11.93
2019-04-10T12:54:49.130Z,11.33
2019-04-10T12:57:21.068Z,12.75
2019-04-10T12:59:59.401Z,8.85
2019-04-10T13:02:26.183Z,8.27
2019-04-10T13:04:57.641Z,9.48
2019-04-10T13:07:29.708Z,11.73
2019-04-10T13:10:02.449Z,23.67
2019-04-10T13:12:35.397Z,23.45
2019-04-10T13:15:08.515Z,18.10
2019-04-10T13:17:40.656Z,16.85
2019-04-10T13:20:13.682Z,12.10
2019-04-10T13:22:46.400Z,11.35
2019-04-10T13:25:18.476Z,12.78
2019-04-10T13:27:50.808Z,16.93
2019-04-10T13:30:22.445Z,11.00
2019-04-10T13:32:53.587Z,10.53
2019-04-10T13:35:26.097Z,8.47
2019-04-10T13:37:57.526Z,15.75
2019-04-10T13:40:29.901Z,11.57
2019-04-10T13:43:01.958Z,9.33
2019-04-10T13:45:33.511Z,14.45
2019-04-10T13:48:06.134Z,9.83
2019-04-10T13:50:37.448Z,9.35
2019-04-10T13:53:09.929Z,13.65
2019-04-10T13:55:44.414Z,11.28
2019-04-10T13:58:17.195Z,11.90
2019-04-10T14:00:49.826Z,14.47
2019-04-10T14:03:22.566Z,12.63
2019-04-10T14:05:54.857Z,16.57
2019-04-10T14:08:36.792Z,17.32
2019-04-10T14:11:00.592Z,20.20
2019-04-10T14:13:31.803Z,24.43
2019-04-10T14:16:04.407Z,26.00
2019-04-10T14:18:37.069Z,26.93
2019-04-10T14:21:12.912Z,20.23
2019-04-10T14:23:41.516Z,20.25
2019-04-10T14:26:39.933Z,22.00
2019-04-10T14:29:05.301Z,22.80
2019-04-10T14:31:38.496Z,16.52
2019-04-10T14:34:10.447Z,17.45
2019-04-10T14:36:42.245Z,17.35
2019-04-10T14:39:19.588Z,15.25
2019-04-10T14:41:48.338Z,11.60
2019-04-10T14:44:20.704Z,16.87
2019-04-10T14:46:52.377Z,15.18
2019-04-10T14:49:24.899Z,17.85
2019-04-10T14:51:56.822Z,13.00
2019-04-10T14:54:28.366Z,14.83
2019-04-10T14:57:00.123Z,13.17
2019-04-10T14:59:31.802Z,11.30
2019-04-10T15:02:06.289Z,11.08
2019-04-10T15:04:37.645Z,12.10
2019-04-10T15:07:10.079Z,16.42
2019-04-10T15:09:43.724Z,11.18
2019-04-10T15:12:16.335Z,14.95
2019-04-10T15:14:48.367Z,15.13
2019-04-10T15:17:20.926Z,12.20
2019-04-10T15:19:53.606Z,15.28
2019-04-10T15:22:25.519Z,14.25
2019-04-10T15:24:57.444Z,18.95
2019-04-10T15:27:30.637Z,13.65
2019-04-10T15:30:02.125Z,14.07
2019-04-10T15:32:35.850Z,13.43
2019-04-10T15:35:08.377Z,12.23
2019-04-10T15:37:40.128Z,15.10
2019-04-10T15:40:18.508Z,12.50
2019-04-10T15:42:44.571Z,12.13
2019-04-10T15:45:16.635Z,13.90
2019-04-10T15:47:52.553Z,13.05
2019-04-10T15:50:22.063Z,10.78
2019-04-10T15:52:53.691Z,16.00
2019-04-10T15:55:25.921Z,18.92
2019-04-10T15:58:00.516Z,17.85
2019-04-10T16:00:30.256Z,16.10
2019-04-10T16:03:01.413Z,14.95
2019-04-10T16:05:33.439Z,12.07
2019-04-10T16:08:05.210Z,11.18
2019-04-10T16:10:39.251Z,16.83
2019-04-10T16:13:21.979Z,15.03
2019-04-10T16:15:54.714Z,15.80
2019-04-10T16:18:28.909Z,15.85
2019-04-10T16:21:00.396Z,15.75
2019-04-10T16:23:40.068Z,18.35
2019-04-10T16:26:11.588Z,14.95
2019-04-10T16:28:43.130Z,14.20
2019-04-10T16:31:15.717Z,17.75
2019-04-10T16:33:48.369Z,13.60
2019-04-10T16:36:20.066Z,14.85
2019-04-10T16:38:51.433Z,12.78
2019-04-10T16:41:26.138Z,12.70
2019-04-10T16:43:57.086Z,15.83
2019-04-10T16:46:29.817Z,18.75
2019-04-10T16:49:01.930Z,16.57
2019-04-10T16:51:34.416Z,12.27
2019-04-10T16:54:06.285Z,17.05
2019-04-10T16:56:38.050Z,12.30
2019-04-10T16:59:09.568Z,12.00
2019-04-10T17:01:40.914Z,15.48
2019-04-10T17:04:12.682Z,13.30
2019-04-10T17:06:44.532Z,15.13
2019-04-10T17:09:18.706Z,12.35
2019-04-10T17:11:50.093Z,16.42
2019-04-10T17:14:22.141Z,17.42
2019-04-10T17:16:53.668Z,15.43
2019-04-10T17:19:25.174Z,13.98
2019-04-10T17:21:56.731Z,15.53
2019-04-10T17:24:29.205Z,16.45
2019-04-10T17:27:01.638Z,16.25
2019-04-10T17:29:33.418Z,17.02
2019-04-10T17:32:04.989Z,15.38
2019-04-10T17:34:36.704Z,20.30
2019-04-10T17:37:09.542Z,14.23
2019-04-10T17:39:41.797Z,23.25
2019-04-10T17:42:14.429Z,20.95
2019-04-10T17:44:45.840Z,24.85
2019-04-10T17:47:17.070Z,22.10
2019-04-10T17:49:49.733Z,26.65
2019-04-10T17:52:21.309Z,20.77
2019-04-10T17:54:53.372Z,20.48
2019-04-10T17:57:33.617Z,29.05
2019-04-10T17:59:58.575Z,21.00
2019-04-10T18:02:30.653Z,25.95
2019-04-10T18:05:02.477Z,24.02
2019-04-10T18:07:36.338Z,25.48
2019-04-10T18:10:09.250Z,24.57
2019-04-10T18:12:40.663Z,27.93
2019-04-10T18:15:12.082Z,26.33
2019-04-10T18:17:45.035Z,23.45
2019-04-10T18:20:16.161Z,28.62
2019-04-10T18:22:47.733Z,29.52
2019-04-10T18:25:20.161Z,26.35
2019-04-10T18:27:52.381Z,30.57
2019-04-10T18:30:24.125Z,28.02
2019-04-10T18:32:56.130Z,25.95
2019-04-10T18:35:27.488Z,26.12
2019-04-10T18:37:59.774Z,25.55
2019-04-10T18:40:31.654Z,27.80
2019-04-10T18:43:04.232Z,26.93
2019-04-10T18:45:35.813Z,27.52
2019-04-10T18:48:08.287Z,24.85
2019-04-10T18:50:40.507Z,34.03
2019-04-10T18:53:13.076Z,34.18
2019-04-10T18:55:45.451Z,32.03
2019-04-10T18:58:19.234Z,37.05
2019-04-10T19:01:08.795Z,43.60
2019-04-10T19:03:49.106Z,38.75
2019-04-10T19:06:18.393Z,36.93
2019-04-10T19:09:01.906Z,37.45
2019-04-10T19:11:26.318Z,37.03
2019-04-10T19:13:57.140Z,35.10
2019-04-10T19:16:29.753Z,32.85
2019-04-10T19:19:02.062Z,35.55
2019-04-10T19:21:33.611Z,38.70
2019-04-10T19:24:06.160Z,37.97
2019-04-10T19:26:37.941Z,37.58
2019-04-10T19:29:09.568Z,34.50
2019-04-10T19:31:43.631Z,35.55
2019-04-10T19:34:15.262Z,31.50
2019-04-10T19:36:48.022Z,36.00
2019-04-10T19:39:20.208Z,35.30
2019-04-10T19:41:51.508Z,35.00
2019-04-10T19:44:23.231Z,33.18
2019-04-10T19:46:55.662Z,36.17
2019-04-10T19:49:28.078Z,29.50
2019-04-10T19:52:00.642Z,31.17
2019-04-10T19:54:33.239Z,31.80
2019-04-10T19:57:04.982Z,27.45
2019-04-10T19:59:36.346Z,29.23
2019-04-10T20:02:08.767Z,29.12
2019-04-10T20:04:40.975Z,28.60
2019-04-10T20:07:13.191Z,31.37
2019-04-10T20:09:44.589Z,27.50
2019-04-10T20:12:16.161Z,25.72
2019-04-10T20:14:48.441Z,26.07
2019-04-10T20:17:19.871Z,25.27
2019-04-10T20:19:54.170Z,24.50
2019-04-10T20:22:25.179Z,19.75
2019-04-10T20:24:56.851Z,22.67
2019-04-10T20:27:28.126Z,26.00
2019-04-10T20:29:59.679Z,27.27
2019-04-10T20:32:32.146Z,23.50
2019-04-10T20:35:05.756Z,24.05
2019-04-10T20:37:37.305Z,24.98
2019-04-10T20:40:09.818Z,22.73
2019-04-10T20:42:42.498Z,20.23
2019-04-10T20:45:14.451Z,25.60
2019-04-10T20:47:47.107Z,24.02
2019-04-10T20:50:19.585Z,19.40
2019-04-10T20:52:53.622Z,24.63
2019-04-10T20:55:25.817Z,25.08
2019-04-10T20:57:57.114Z,22.52
2019-04-10T21:00:34.109Z,22.93
2019-04-10T21:03:07.085Z,24.30
2019-04-10T21:05:38.444Z,26.02
2019-04-10T21:08:11.485Z,23.98
2019-04-10T21:10:43.180Z,24.90
2019-04-10T21:13:15.045Z,25.05
2019-04-10T21:15:48.564Z,29.32
2019-04-10T21:18:21.200Z,34.67
2019-04-10T21:20:53.700Z,33.67
2019-04-10T21:23:25.038Z,36.60
2019-04-10T21:25:57.441Z,29.77
2019-04-10T21:28:28.653Z,24.60
2019-04-10T21:31:11.672Z,24.17
2019-04-10T21:33:56.858Z,24.27
2019-04-10T21:36:28.621Z,20.45
2019-04-10T21:39:00.952Z,27.20
2019-04-10T21:41:34.715Z,25.05
2019-04-10T21:44:06.408Z,22.00
2019-04-10T21:46:37.590Z,23.93
2019-04-10T21:49:11.328Z,22.50
2019-04-10T21:51:43.072Z,22.13
2019-04-10T21:54:14.605Z,21.87
2019-04-10T21:56:45.742Z,23.02
2019-04-10T21:59:18.343Z,20.35
2019-04-10T22:01:50.805Z,21.00
2019-04-10T22:04:23.146Z,23.40
2019-04-10T22:07:12.328Z,21.02
2019-04-10T22:09:55.032Z,24.95
2019-04-10T22:12:31.743Z,23.45
2019-04-10T22:15:00.301Z,25.70
2019-04-10T22:17:32.120Z,26.27
2019-04-10T22:20:03.759Z,24.70
2019-04-10T22:22:35.350Z,26.95
2019-04-10T22:25:08.063Z,29.90
2019-04-10T22:27:41.404Z,26.48
2019-04-10T22:30:14.861Z,25.50
2019-04-10T22:32:47.138Z,23.60
2019-04-10T22:35:19.422Z,26.10
2019-04-10T22:37:50.738Z,25.17
2019-04-10T22:40:23.516Z,22.35
2019-04-10T22:42:55.421Z,23.87
2019-04-10T22:45:31.280Z,25.40
2019-04-10T22:48:04.219Z,23.75
2019-04-10T22:50:36.359Z,25.82
2019-04-10T22:53:08.850Z,19.25
2019-04-10T22:55:40.836Z,24.93
2019-04-10T22:58:12.819Z,20.80
2019-04-10T23:00:44.559Z,25.08
2019-04-10T23:03:15.803Z,22.40
2019-04-10T23:05:48.930Z,22.80
2019-04-10T23:08:20.234Z,21.00
2019-04-10T23:10:51.793Z,27.05
2019-04-10T23:13:23.729Z,21.52
2019-04-10T23:15:57.746Z,19.35
2019-04-10T23:18:29.729Z,20.57
2019-04-10T23:21:01.056Z,21.52
2019-04-10T23:23:32.784Z,21.45
2019-04-10T23:26:04.869Z,20.83
2019-04-10T23:28:35.982Z,22.05
2019-04-10T23:31:07.799Z,18.37
2019-04-10T23:33:39.804Z,18.90
2019-04-10T23:36:11.426Z,18.82
2019-04-10T23:38:43.772Z,21.48
2019-04-10T23:41:15.673Z,22.30
2019-04-10T23:43:48.091Z,19.87
2019-04-10T23:46:20.071Z,19.20
2019-04-10T23:48:51.641Z,21.20
2019-04-10T23:51:23.229Z,18.52
2019-04-10T23:53:55.088Z,20.75
2019-04-10T23:56:27.347Z,18.75
2019-04-10T23:58:58.676Z,18.35
